sensor_id;sensor_type;location;lat;lon;timestamp;temperature;humidity
34135;DHT22;20410;55.578;12.968;2023-11-18T00:01:49;2.50;1.00
34135;DHT22;20410;55.578;12.968;2023-11-18T00:04:14;2.40;1.00
34135;DHT22;20410;55.578;12.968;2023-11-18T00:06:43;2.30;1.00
34135;DHT22;20410;55.578;12.968;2023-11-18T00:09:12;2.20;1.00
34135;DHT22;20410;55.578;12.968;2023-11-18T00:11:40;2.10;1.00
34135;DHT22;20410;55.578;12.968;2023-11-18T00:14:07;2.10;1.00
34135;DHT22;20410;55.578;12.968;2023-11-18T00:16:33;2.10;1.00
34135;DHT22;20410;55.578;12.968;2023-11-18T00:18:59;2.10;1.00
34135;DHT22;20410;55.578;12.968;2023-11-18T00:21:25;2.10;1.00
34135;DHT22;20410;55.578;12.968;2023-11-18T00:23:51;2.10;1.00
34135;DHT22;20410;55.578;12.968;2023-11-18T00:26:16;2.20;1.00
34135;DHT22;20410;55.578;12.968;2023-11-18T00:28:42;2.30;1.00
34135;DHT22;20410;55.578;12.968;2023-11-18T00:31:08;2.30;1.00
34135;DHT22;20410;55.578;12.968;2023-11-18T00:33:33;2.30;1.00
34135;DHT22;20410;55.578;12.968;2023-11-18T00:35:59;2.20;1.00
34135;DHT22;20410;55.578;12.968;2023-11-18T00:38:26;2.20;1.00
34135;DHT22;20410;55.578;12.968;2023-11-18T00:40:52;2.30;1.00
34135;DHT22;20410;55.578;12.968;2023-11-18T00:43:17;2.40;1.00
34135;DHT22;20410;55.578;12.968;2023-11-18T00:45:43;2.40;1.00
34135;DHT22;20410;55.578;12.968;2023-11-18T00:48:09;2.40;1.00
34135;DHT22;20410;55.578;12.968;2023-11-18T00:50:35;2.40;1.00
34135;DHT22;20410;55.578;12.968;2023-11-18T00:53:00;2.30;1.00
34135;DHT22;20410;55.578;12.968;2023-11-18T00:55:26;2.20;1.00
34135;DHT22;20410;55.578;12.968;2023-11-18T00:57:52;2.10;1.00
34135;DHT22;20410;55.578;12.968;2023-11-18T01:00:18;2.10;1.00
34135;DHT22;20410;55.578;12.968;2023-11-18T01:02:48;2.00;1.00
34135;DHT22;20410;55.578;12.968;2023-11-18T01:05:15;1.90;1.00
34135;DHT22;20410;55.578;12.968;2023-11-18T01:07:40;1.80;1.00
34135;DHT22;20410;55.578;12.968;2023-11-18T01:10:07;1.90;1.00
34135;DHT22;20410;55.578;12.968;2023-11-18T01:12:35;1.90;1.00
34135;DHT22;20410;55.578;12.968;2023-11-18T01:15:01;2.00;1.00
34135;DHT22;20410;55.578;12.968;2023-11-18T01:17:28;2.00;1.00
34135;DHT22;20410;55.578;12.968;2023-11-18T01:19:54;2.00;1.00
34135;DHT22;20410;55.578;12.968;2023-11-18T01:22:20;2.00;1.00
34135;DHT22;20410;55.578;12.968;2023-11-18T01:24:46;2.00;1.00
34135;DHT22;20410;55.578;12.968;2023-11-18T01:27:12;1.90;1.00
34135;DHT22;20410;55.578;12.968;2023-11-18T01:29:38;1.80;1.00
34135;DHT22;20410;55.578;12.968;2023-11-18T01:32:07;1.70;1.00
34135;DHT22;20410;55.578;12.968;2023-11-18T01:34:35;1.70;1.00
34135;DHT22;20410;55.578;12.968;2023-11-18T01:37:03;1.80;1.00
34135;DHT22;20410;55.578;12.968;2023-11-18T01:39:33;1.80;1.00
34135;DHT22;20410;55.578;12.968;2023-11-18T01:41:59;1.80;1.00
34135;DHT22;20410;55.578;12.968;2023-11-18T01:44:25;1.80;1.00
34135;DHT22;20410;55.578;12.968;2023-11-18T01:46:54;1.90;1.00
34135;DHT22;20410;55.578;12.968;2023-11-18T01:49:20;1.90;1.00
34135;DHT22;20410;55.578;12.968;2023-11-18T01:51:46;1.90;1.00
34135;DHT22;20410;55.578;12.968;2023-11-18T01:54:13;2.00;1.00
34135;DHT22;20410;55.578;12.968;2023-11-18T01:56:43;2.00;1.00
34135;DHT22;20410;55.578;12.968;2023-11-18T01:59:09;2.10;1.00
34135;DHT22;20410;55.578;12.968;2023-11-18T02:01:35;2.10;1.00
34135;DHT22;20410;55.578;12.968;2023-11-18T02:04:02;2.10;1.00
34135;DHT22;20410;55.578;12.968;2023-11-18T02:06:28;2.10;1.00
34135;DHT22;20410;55.578;12.968;2023-11-18T02:08:54;1.90;1.00
34135;DHT22;20410;55.578;12.968;2023-11-18T02:11:26;1.80;1.00
34135;DHT22;20410;55.578;12.968;2023-11-18T02:13:53;1.70;1.00
34135;DHT22;20410;55.578;12.968;2023-11-18T02:16:22;1.60;1.00
34135;DHT22;20410;55.578;12.968;2023-11-18T02:18:48;1.60;1.00
34135;DHT22;20410;55.578;12.968;2023-11-18T02:21:14;1.60;1.00
34135;DHT22;20410;55.578;12.968;2023-11-18T02:23:41;1.50;1.00
34135;DHT22;20410;55.578;12.968;2023-11-18T02:26:08;1.40;1.00
34135;DHT22;20410;55.578;12.968;2023-11-18T02:28:35;1.30;1.00
34135;DHT22;20410;55.578;12.968;2023-11-18T02:31:20;1.30;1.00
34135;DHT22;20410;55.578;12.968;2023-11-18T02:34:11;1.40;1.00
34135;DHT22;20410;55.578;12.968;2023-11-18T02:36:44;1.40;1.00
34135;DHT22;20410;55.578;12.968;2023-11-18T02:39:14;1.40;1.00
34135;DHT22;20410;55.578;12.968;2023-11-18T02:41:45;1.40;1.00
34135;DHT22;20410;55.578;12.968;2023-11-18T02:44:13;1.40;1.00
34135;DHT22;20410;55.578;12.968;2023-11-18T02:46:43;1.40;1.00
34135;DHT22;20410;55.578;12.968;2023-11-18T02:49:09;1.40;1.00
34135;DHT22;20410;55.578;12.968;2023-11-18T02:51:35;1.40;1.00
34135;DHT22;20410;55.578;12.968;2023-11-18T02:54:08;1.30;1.00
34135;DHT22;20410;55.578;12.968;2023-11-18T02:56:39;1.30;1.00
34135;DHT22;20410;55.578;12.968;2023-11-18T02:59:05;1.20;1.00
34135;DHT22;20410;55.578;12.968;2023-11-18T03:01:32;1.10;1.00
34135;DHT22;20410;55.578;12.968;2023-11-18T03:03:59;1.00;1.00
34135;DHT22;20410;55.578;12.968;2023-11-18T03:06:24;0.80;1.00
34135;DHT22;20410;55.578;12.968;2023-11-18T03:08:51;0.70;1.00
34135;DHT22;20410;55.578;12.968;2023-11-18T03:11:17;0.70;1.00
34135;DHT22;20410;55.578;12.968;2023-11-18T03:13:42;0.70;1.00
34135;DHT22;20410;55.578;12.968;2023-11-18T03:16:08;0.70;1.00
34135;DHT22;20410;55.578;12.968;2023-11-18T03:18:42;0.80;1.00
34135;DHT22;20410;55.578;12.968;2023-11-18T03:21:12;0.80;1.00
34135;DHT22;20410;55.578;12.968;2023-11-18T03:23:41;0.90;1.00
34135;DHT22;20410;55.578;12.968;2023-11-18T03:26:10;0.90;1.00
34135;DHT22;20410;55.578;12.968;2023-11-18T03:28:36;1.00;1.00
34135;DHT22;20410;55.578;12.968;2023-11-18T03:31:03;1.00;1.00
34135;DHT22;20410;55.578;12.968;2023-11-18T03:33:29;1.10;1.00
34135;DHT22;20410;55.578;12.968;2023-11-18T03:35:55;1.10;1.00
34135;DHT22;20410;55.578;12.968;2023-11-18T03:38:21;1.10;1.00
34135;DHT22;20410;55.578;12.968;2023-11-18T03:40:47;1.20;1.00
34135;DHT22;20410;55.578;12.968;2023-11-18T03:43:13;1.30;1.00
34135;DHT22;20410;55.578;12.968;2023-11-18T03:45:39;1.30;1.00
34135;DHT22;20410;55.578;12.968;2023-11-18T03:48:05;1.30;1.00
34135;DHT22;20410;55.578;12.968;2023-11-18T03:50:32;1.40;1.00
34135;DHT22;20410;55.578;12.968;2023-11-18T03:52:57;1.40;1.00
34135;DHT22;20410;55.578;12.968;2023-11-18T03:55:24;1.40;1.00
34135;DHT22;20410;55.578;12.968;2023-11-18T03:57:51;1.40;1.00
34135;DHT22;20410;55.578;12.968;2023-11-18T04:00:17;1.40;1.00
34135;DHT22;20410;55.578;12.968;2023-11-18T04:02:43;1.40;1.00
34135;DHT22;20410;55.578;12.968;2023-11-18T04:05:11;1.30;1.00
34135;DHT22;20410;55.578;12.968;2023-11-18T04:07:37;1.30;1.00
34135;DHT22;20410;55.578;12.968;2023-11-18T04:10:03;1.20;1.00
34135;DHT22;20410;55.578;12.968;2023-11-18T04:12:32;1.20;1.00
34135;DHT22;20410;55.578;12.968;2023-11-18T04:14:57;1.10;1.00
34135;DHT22;20410;55.578;12.968;2023-11-18T04:17:23;1.10;1.00
34135;DHT22;20410;55.578;12.968;2023-11-18T04:19:49;1.20;1.00
34135;DHT22;20410;55.578;12.968;2023-11-18T04:22:14;1.10;1.00
34135;DHT22;20410;55.578;12.968;2023-11-18T04:24:40;1.20;1.00
34135;DHT22;20410;55.578;12.968;2023-11-18T04:27:05;1.20;1.00
34135;DHT22;20410;55.578;12.968;2023-11-18T04:29:31;1.20;1.00
34135;DHT22;20410;55.578;12.968;2023-11-18T04:31:57;1.20;1.00
34135;DHT22;20410;55.578;12.968;2023-11-18T04:34:22;1.10;1.00
34135;DHT22;20410;55.578;12.968;2023-11-18T04:36:48;1.00;1.00
34135;DHT22;20410;55.578;12.968;2023-11-18T04:39:14;1.00;1.00
34135;DHT22;20410;55.578;12.968;2023-11-18T04:41:41;1.00;1.00
34135;DHT22;20410;55.578;12.968;2023-11-18T04:44:06;0.90;1.00
34135;DHT22;20410;55.578;12.968;2023-11-18T04:46:32;0.90;1.00
34135;DHT22;20410;55.578;12.968;2023-11-18T04:48:58;0.90;1.00
34135;DHT22;20410;55.578;12.968;2023-11-18T04:51:24;0.90;1.00
34135;DHT22;20410;55.578;12.968;2023-11-18T04:53:49;0.80;1.00
34135;DHT22;20410;55.578;12.968;2023-11-18T04:56:15;0.70;1.00
34135;DHT22;20410;55.578;12.968;2023-11-18T04:58:43;0.70;1.00
34135;DHT22;20410;55.578;12.968;2023-11-18T05:01:11;0.70;1.00
34135;DHT22;20410;55.578;12.968;2023-11-18T05:03:38;0.80;1.00
34135;DHT22;20410;55.578;12.968;2023-11-18T05:06:04;0.90;1.00
34135;DHT22;20410;55.578;12.968;2023-11-18T05:08:29;0.90;1.00
34135;DHT22;20410;55.578;12.968;2023-11-18T05:10:56;1.10;1.00
34135;DHT22;20410;55.578;12.968;2023-11-18T05:13:23;1.10;1.00
34135;DHT22;20410;55.578;12.968;2023-11-18T05:15:49;1.10;1.00
34135;DHT22;20410;55.578;12.968;2023-11-18T05:18:15;1.10;1.00
34135;DHT22;20410;55.578;12.968;2023-11-18T05:20:42;1.10;1.00
34135;DHT22;20410;55.578;12.968;2023-11-18T05:23:08;1.10;1.00
34135;DHT22;20410;55.578;12.968;2023-11-18T05:25:40;1.10;1.00
34135;DHT22;20410;55.578;12.968;2023-11-18T05:28:06;1.10;1.00
34135;DHT22;20410;55.578;12.968;2023-11-18T05:30:34;1.00;1.00
34135;DHT22;20410;55.578;12.968;2023-11-18T05:33:04;0.90;1.00
34135;DHT22;20410;55.578;12.968;2023-11-18T05:35:31;0.80;1.00
34135;DHT22;20410;55.578;12.968;2023-11-18T05:37:58;0.70;1.00
34135;DHT22;20410;55.578;12.968;2023-11-18T05:40:24;0.70;1.00
34135;DHT22;20410;55.578;12.968;2023-11-18T05:42:51;0.80;1.00
34135;DHT22;20410;55.578;12.968;2023-11-18T05:45:17;0.80;1.00
34135;DHT22;20410;55.578;12.968;2023-11-18T05:47:56;0.90;1.00
34135;DHT22;20410;55.578;12.968;2023-11-18T05:50:23;0.80;1.00
34135;DHT22;20410;55.578;12.968;2023-11-18T05:52:50;0.70;1.00
34135;DHT22;20410;55.578;12.968;2023-11-18T05:55:16;0.60;1.00
34135;DHT22;20410;55.578;12.968;2023-11-18T05:57:41;0.60;1.00
34135;DHT22;20410;55.578;12.968;2023-11-18T06:00:11;0.50;1.00
34135;DHT22;20410;55.578;12.968;2023-11-18T06:02:41;0.50;1.00
34135;DHT22;20410;55.578;12.968;2023-11-18T06:05:07;0.50;1.00
34135;DHT22;20410;55.578;12.968;2023-11-18T06:07:33;0.50;1.00
34135;DHT22;20410;55.578;12.968;2023-11-18T06:09:59;0.50;1.00
34135;DHT22;20410;55.578;12.968;2023-11-18T06:12:26;0.30;1.00
34135;DHT22;20410;55.578;12.968;2023-11-18T06:14:52;0.20;1.00
34135;DHT22;20410;55.578;12.968;2023-11-18T06:17:17;0.10;1.00
34135;DHT22;20410;55.578;12.968;2023-11-18T06:19:44;0.00;1.00
34135;DHT22;20410;55.578;12.968;2023-11-18T06:22:10;0.00;1.00
34135;DHT22;20410;55.578;12.968;2023-11-18T06:24:36;-0.20;1.00
34135;DHT22;20410;55.578;12.968;2023-11-18T06:27:04;-0.20;1.00
34135;DHT22;20410;55.578;12.968;2023-11-18T06:29:32;-0.30;1.00
34135;DHT22;20410;55.578;12.968;2023-11-18T06:31:58;-0.20;1.00
34135;DHT22;20410;55.578;12.968;2023-11-18T06:34:23;-0.10;1.00
34135;DHT22;20410;55.578;12.968;2023-11-18T06:36:49;-0.10;1.00
34135;DHT22;20410;55.578;12.968;2023-11-18T06:39:14;-0.10;1.00
34135;DHT22;20410;55.578;12.968;2023-11-18T06:41:41;-0.30;1.00
34135;DHT22;20410;55.578;12.968;2023-11-18T06:44:14;-0.40;1.00
34135;DHT22;20410;55.578;12.968;2023-11-18T06:46:43;-0.40;1.00
34135;DHT22;20410;55.578;12.968;2023-11-18T06:49:10;-0.50;1.00
34135;DHT22;20410;55.578;12.968;2023-11-18T06:51:40;-0.50;1.00
34135;DHT22;20410;55.578;12.968;2023-11-18T06:54:07;-0.60;1.00
34135;DHT22;20410;55.578;12.968;2023-11-18T06:56:36;-0.70;1.00
34135;DHT22;20410;55.578;12.968;2023-11-18T06:59:06;-0.80;1.00
34135;DHT22;20410;55.578;12.968;2023-11-18T07:01:33;-0.80;1.00
34135;DHT22;20410;55.578;12.968;2023-11-18T07:03:58;-0.80;1.00
34135;DHT22;20410;55.578;12.968;2023-11-18T07:06:24;-0.80;1.00
34135;DHT22;20410;55.578;12.968;2023-11-18T07:08:52;-0.80;1.00
34135;DHT22;20410;55.578;12.968;2023-11-18T07:11:19;-0.90;1.00
34135;DHT22;20410;55.578;12.968;2023-11-18T07:13:46;-1.00;1.00
34135;DHT22;20410;55.578;12.968;2023-11-18T07:16:13;-1.00;1.00
34135;DHT22;20410;55.578;12.968;2023-11-18T07:18:40;-0.90;1.00
34135;DHT22;20410;55.578;12.968;2023-11-18T07:21:07;-0.80;1.00
34135;DHT22;20410;55.578;12.968;2023-11-18T07:23:35;-0.70;1.00
34135;DHT22;20410;55.578;12.968;2023-11-18T07:26:00;-0.60;1.00
34135;DHT22;20410;55.578;12.968;2023-11-18T07:28:27;-0.50;1.00
34135;DHT22;20410;55.578;12.968;2023-11-18T07:30:53;-0.50;1.00
34135;DHT22;20410;55.578;12.968;2023-11-18T07:33:19;-0.60;1.00
34135;DHT22;20410;55.578;12.968;2023-11-18T07:35:46;-0.60;1.00
34135;DHT22;20410;55.578;12.968;2023-11-18T07:38:13;-0.60;1.00
34135;DHT22;20410;55.578;12.968;2023-11-18T07:40:39;-0.50;1.00
34135;DHT22;20410;55.578;12.968;2023-11-18T07:43:11;-0.40;1.00
34135;DHT22;20410;55.578;12.968;2023-11-18T07:45:37;-0.30;1.00
34135;DHT22;20410;55.578;12.968;2023-11-18T07:50:35;-0.40;1.00
34135;DHT22;20410;55.578;12.968;2023-11-18T07:53:01;-0.50;1.00
34135;DHT22;20410;55.578;12.968;2023-11-18T07:55:28;-0.60;1.00
34135;DHT22;20410;55.578;12.968;2023-11-18T07:57:54;-0.60;1.00
34135;DHT22;20410;55.578;12.968;2023-11-18T08:00:20;-0.60;1.00
34135;DHT22;20410;55.578;12.968;2023-11-18T08:02:46;-0.40;1.00
34135;DHT22;20410;55.578;12.968;2023-11-18T08:05:12;-0.40;1.00
34135;DHT22;20410;55.578;12.968;2023-11-18T08:07:41;-0.30;1.00
34135;DHT22;20410;55.578;12.968;2023-11-18T08:10:09;-0.30;1.00
34135;DHT22;20410;55.578;12.968;2023-11-18T08:12:38;-0.20;1.00
34135;DHT22;20410;55.578;12.968;2023-11-18T08:15:04;0.00;1.00
34135;DHT22;20410;55.578;12.968;2023-11-18T08:17:34;0.10;1.00
34135;DHT22;20410;55.578;12.968;2023-11-18T08:20:00;0.20;1.00
34135;DHT22;20410;55.578;12.968;2023-11-18T08:22:25;0.30;1.00
34135;DHT22;20410;55.578;12.968;2023-11-18T08:24:51;0.40;1.00
34135;DHT22;20410;55.578;12.968;2023-11-18T08:27:17;0.60;1.00
34135;DHT22;20410;55.578;12.968;2023-11-18T08:29:42;0.70;1.00
34135;DHT22;20410;55.578;12.968;2023-11-18T08:32:08;0.90;1.00
34135;DHT22;20410;55.578;12.968;2023-11-18T08:34:36;1.10;1.00
34135;DHT22;20410;55.578;12.968;2023-11-18T08:37:06;1.20;1.00
34135;DHT22;20410;55.578;12.968;2023-11-18T08:39:32;1.30;1.00
34135;DHT22;20410;55.578;12.968;2023-11-18T08:41:58;1.40;1.00
34135;DHT22;20410;55.578;12.968;2023-11-18T08:44:24;1.50;1.00
34135;DHT22;20410;55.578;12.968;2023-11-18T08:46:51;1.60;1.00
34135;DHT22;20410;55.578;12.968;2023-11-18T08:49:18;1.70;1.00
34135;DHT22;20410;55.578;12.968;2023-11-18T08:51:47;1.80;1.00
34135;DHT22;20410;55.578;12.968;2023-11-18T08:54:15;1.80;1.00
34135;DHT22;20410;55.578;12.968;2023-11-18T08:56:54;1.90;1.00
34135;DHT22;20410;55.578;12.968;2023-11-18T08:59:20;2.00;1.00
34135;DHT22;20410;55.578;12.968;2023-11-18T09:01:53;2.10;1.00
34135;DHT22;20410;55.578;12.968;2023-11-18T09:04:24;2.10;1.00
34135;DHT22;20410;55.578;12.968;2023-11-18T09:06:51;2.20;1.00
34135;DHT22;20410;55.578;12.968;2023-11-18T09:09:23;2.20;1.00
34135;DHT22;20410;55.578;12.968;2023-11-18T09:11:56;2.20;1.00
34135;DHT22;20410;55.578;12.968;2023-11-18T09:14:26;2.30;1.00
34135;DHT22;20410;55.578;12.968;2023-11-18T09:16:52;2.30;1.00
34135;DHT22;20410;55.578;12.968;2023-11-18T09:19:20;2.40;1.00
34135;DHT22;20410;55.578;12.968;2023-11-18T09:21:47;2.40;1.00
34135;DHT22;20410;55.578;12.968;2023-11-18T09:24:12;2.40;1.00
34135;DHT22;20410;55.578;12.968;2023-11-18T09:26:39;2.60;1.00
34135;DHT22;20410;55.578;12.968;2023-11-18T09:29:06;2.60;1.00
34135;DHT22;20410;55.578;12.968;2023-11-18T09:31:35;2.60;1.00
34135;DHT22;20410;55.578;12.968;2023-11-18T09:34:02;2.60;1.00
34135;DHT22;20410;55.578;12.968;2023-11-18T09:36:32;2.60;1.00
34135;DHT22;20410;55.578;12.968;2023-11-18T09:38:59;2.60;1.00
34135;DHT22;20410;55.578;12.968;2023-11-18T09:41:25;2.70;1.00
34135;DHT22;20410;55.578;12.968;2023-11-18T09:43:52;2.70;1.00
34135;DHT22;20410;55.578;12.968;2023-11-18T09:46:25;2.70;1.00
34135;DHT22;20410;55.578;12.968;2023-11-18T09:51:43;2.80;1.00
34135;DHT22;20410;55.578;12.968;2023-11-18T09:54:29;2.80;1.00
34135;DHT22;20410;55.578;12.968;2023-11-18T09:57:08;2.90;1.00
34135;DHT22;20410;55.578;12.968;2023-11-18T09:59:49;3.00;1.00
34135;DHT22;20410;55.578;12.968;2023-11-18T10:02:22;3.00;1.00
34135;DHT22;20410;55.578;12.968;2023-11-18T10:04:49;3.10;1.00
34135;DHT22;20410;55.578;12.968;2023-11-18T10:07:20;3.10;1.00
34135;DHT22;20410;55.578;12.968;2023-11-18T10:09:46;3.10;1.00
34135;DHT22;20410;55.578;12.968;2023-11-18T10:12:14;3.20;1.00
34135;DHT22;20410;55.578;12.968;2023-11-18T10:14:42;3.30;1.00
34135;DHT22;20410;55.578;12.968;2023-11-18T10:17:11;3.30;1.00
34135;DHT22;20410;55.578;12.968;2023-11-18T10:19:56;3.30;1.00
34135;DHT22;20410;55.578;12.968;2023-11-18T10:22:26;3.50;1.00
34135;DHT22;20410;55.578;12.968;2023-11-18T10:24:53;3.50;1.00
34135;DHT22;20410;55.578;12.968;2023-11-18T10:27:27;3.50;1.00
34135;DHT22;20410;55.578;12.968;2023-11-18T10:30:05;3.50;1.00
34135;DHT22;20410;55.578;12.968;2023-11-18T10:32:55;3.60;1.00
34135;DHT22;20410;55.578;12.968;2023-11-18T10:35:21;3.60;1.00
34135;DHT22;20410;55.578;12.968;2023-11-18T10:37:47;3.60;1.00
34135;DHT22;20410;55.578;12.968;2023-11-18T10:40:14;3.70;1.00
34135;DHT22;20410;55.578;12.968;2023-11-18T10:42:40;3.80;1.00
34135;DHT22;20410;55.578;12.968;2023-11-18T10:45:08;3.80;1.00
34135;DHT22;20410;55.578;12.968;2023-11-18T10:47:42;3.90;1.00
34135;DHT22;20410;55.578;12.968;2023-11-18T10:50:08;3.90;1.00
34135;DHT22;20410;55.578;12.968;2023-11-18T10:52:35;4.00;1.00
34135;DHT22;20410;55.578;12.968;2023-11-18T10:55:03;4.10;1.00
34135;DHT22;20410;55.578;12.968;2023-11-18T10:57:38;4.10;1.00
34135;DHT22;20410;55.578;12.968;2023-11-18T11:00:07;4.30;1.00
34135;DHT22;20410;55.578;12.968;2023-11-18T11:02:40;4.40;1.00
34135;DHT22;20410;55.578;12.968;2023-11-18T11:05:07;4.40;1.00
34135;DHT22;20410;55.578;12.968;2023-11-18T11:07:33;4.40;1.00
34135;DHT22;20410;55.578;12.968;2023-11-18T11:10:00;4.50;1.00
34135;DHT22;20410;55.578;12.968;2023-11-18T11:12:33;4.50;1.00
34135;DHT22;20410;55.578;12.968;2023-11-18T11:15:05;4.50;1.00
34135;DHT22;20410;55.578;12.968;2023-11-18T11:17:35;4.50;1.00
34135;DHT22;20410;55.578;12.968;2023-11-18T11:20:06;4.60;1.00
34135;DHT22;20410;55.578;12.968;2023-11-18T11:25:50;4.60;1.00
34135;DHT22;20410;55.578;12.968;2023-11-18T11:28:22;4.60;1.00
34135;DHT22;20410;55.578;12.968;2023-11-18T11:31:00;4.60;1.00
34135;DHT22;20410;55.578;12.968;2023-11-18T11:33:31;4.60;1.00
34135;DHT22;20410;55.578;12.968;2023-11-18T11:36:11;4.70;1.00
34135;DHT22;20410;55.578;12.968;2023-11-18T11:38:37;4.70;1.00
34135;DHT22;20410;55.578;12.968;2023-11-18T11:41:04;4.60;1.00
34135;DHT22;20410;55.578;12.968;2023-11-18T11:43:32;4.50;1.00
34135;DHT22;20410;55.578;12.968;2023-11-18T11:46:00;4.60;1.00
34135;DHT22;20410;55.578;12.968;2023-11-18T11:48:35;4.60;1.00
34135;DHT22;20410;55.578;12.968;2023-11-18T11:53:50;4.50;1.00
34135;DHT22;20410;55.578;12.968;2023-11-18T11:56:17;4.40;1.00
34135;DHT22;20410;55.578;12.968;2023-11-18T11:58:52;4.40;1.00
34135;DHT22;20410;55.578;12.968;2023-11-18T12:01:35;4.40;1.00
34135;DHT22;20410;55.578;12.968;2023-11-18T12:04:09;4.50;1.00
34135;DHT22;20410;55.578;12.968;2023-11-18T12:06:49;4.70;1.00
34135;DHT22;20410;55.578;12.968;2023-11-18T12:09:19;4.80;1.00
34135;DHT22;20410;55.578;12.968;2023-11-18T12:11:45;4.90;1.00
34135;DHT22;20410;55.578;12.968;2023-11-18T12:14:15;4.80;1.00
34135;DHT22;20410;55.578;12.968;2023-11-18T12:17:06;4.70;1.00
34135;DHT22;20410;55.578;12.968;2023-11-18T12:19:38;4.80;1.00
34135;DHT22;20410;55.578;12.968;2023-11-18T12:22:17;4.80;1.00
34135;DHT22;20410;55.578;12.968;2023-11-18T12:33:05;4.80;1.00
34135;DHT22;20410;55.578;12.968;2023-11-18T12:41:35;4.80;1.00
34135;DHT22;20410;55.578;12.968;2023-11-18T12:44:30;4.90;1.00
34135;DHT22;20410;55.578;12.968;2023-11-18T12:49:40;4.80;1.00
34135;DHT22;20410;55.578;12.968;2023-11-18T12:52:11;4.70;1.00
34135;DHT22;20410;55.578;12.968;2023-11-18T12:54:38;4.80;1.00
34135;DHT22;20410;55.578;12.968;2023-11-18T12:57:12;4.80;1.00
34135;DHT22;20410;55.578;12.968;2023-11-18T12:59:41;4.90;1.00
34135;DHT22;20410;55.578;12.968;2023-11-18T13:02:10;4.90;1.00
34135;DHT22;20410;55.578;12.968;2023-11-18T13:04:47;4.90;1.00
34135;DHT22;20410;55.578;12.968;2023-11-18T13:07:15;4.90;1.00
34135;DHT22;20410;55.578;12.968;2023-11-18T13:09:41;5.00;1.00
34135;DHT22;20410;55.578;12.968;2023-11-18T13:12:11;5.10;1.00
34135;DHT22;20410;55.578;12.968;2023-11-18T13:14:41;5.20;1.00
34135;DHT22;20410;55.578;12.968;2023-11-18T13:17:12;5.30;1.00
34135;DHT22;20410;55.578;12.968;2023-11-18T13:19:39;5.40;1.00
34135;DHT22;20410;55.578;12.968;2023-11-18T13:22:06;5.30;1.00
34135;DHT22;20410;55.578;12.968;2023-11-18T13:24:39;5.40;1.00
34135;DHT22;20410;55.578;12.968;2023-11-18T13:27:05;5.50;1.00
34135;DHT22;20410;55.578;12.968;2023-11-18T13:29:33;5.40;1.00
34135;DHT22;20410;55.578;12.968;2023-11-18T13:32:00;5.50;1.00
34135;DHT22;20410;55.578;12.968;2023-11-18T13:34:30;5.40;1.00
34135;DHT22;20410;55.578;12.968;2023-11-18T13:37:01;5.40;1.00
34135;DHT22;20410;55.578;12.968;2023-11-18T13:39:27;5.30;1.00
34135;DHT22;20410;55.578;12.968;2023-11-18T13:41:53;5.30;1.00
34135;DHT22;20410;55.578;12.968;2023-11-18T13:44:35;5.30;1.00
34135;DHT22;20410;55.578;12.968;2023-11-18T13:47:01;5.30;1.00
34135;DHT22;20410;55.578;12.968;2023-11-18T13:49:28;5.30;1.00
34135;DHT22;20410;55.578;12.968;2023-11-18T13:51:55;5.20;1.00
34135;DHT22;20410;55.578;12.968;2023-11-18T13:54:22;5.20;1.00
34135;DHT22;20410;55.578;12.968;2023-11-18T13:56:49;5.20;1.00
34135;DHT22;20410;55.578;12.968;2023-11-18T13:59:15;5.20;1.00
34135;DHT22;20410;55.578;12.968;2023-11-18T14:01:40;5.20;1.00
34135;DHT22;20410;55.578;12.968;2023-11-18T14:04:07;5.20;1.00
34135;DHT22;20410;55.578;12.968;2023-11-18T14:06:35;5.30;1.00
34135;DHT22;20410;55.578;12.968;2023-11-18T14:09:01;5.30;1.00
34135;DHT22;20410;55.578;12.968;2023-11-18T14:11:26;5.20;1.00
34135;DHT22;20410;55.578;12.968;2023-11-18T14:13:52;5.20;1.00
34135;DHT22;20410;55.578;12.968;2023-11-18T14:16:18;5.10;1.00
34135;DHT22;20410;55.578;12.968;2023-11-18T14:18:46;5.10;1.00
34135;DHT22;20410;55.578;12.968;2023-11-18T14:21:13;5.10;1.00
34135;DHT22;20410;55.578;12.968;2023-11-18T14:23:39;5.00;1.00
34135;DHT22;20410;55.578;12.968;2023-11-18T14:26:06;5.00;1.00
34135;DHT22;20410;55.578;12.968;2023-11-18T14:28:33;4.90;1.00
34135;DHT22;20410;55.578;12.968;2023-11-18T14:31:00;4.80;1.00
34135;DHT22;20410;55.578;12.968;2023-11-18T14:33:27;4.80;1.00
34135;DHT22;20410;55.578;12.968;2023-11-18T14:35:53;4.70;1.00
34135;DHT22;20410;55.578;12.968;2023-11-18T14:38:19;4.70;1.00
34135;DHT22;20410;55.578;12.968;2023-11-18T14:40:46;4.60;1.00
34135;DHT22;20410;55.578;12.968;2023-11-18T14:43:14;4.60;1.00
34135;DHT22;20410;55.578;12.968;2023-11-18T14:45:40;4.50;1.00
34135;DHT22;20410;55.578;12.968;2023-11-18T14:48:05;4.40;1.00
34135;DHT22;20410;55.578;12.968;2023-11-18T14:50:31;4.40;1.00
34135;DHT22;20410;55.578;12.968;2023-11-18T14:52:57;4.30;1.00
34135;DHT22;20410;55.578;12.968;2023-11-18T14:55:26;4.20;1.00
34135;DHT22;20410;55.578;12.968;2023-11-18T14:57:52;4.10;1.00
34135;DHT22;20410;55.578;12.968;2023-11-18T15:00:18;4.00;1.00
34135;DHT22;20410;55.578;12.968;2023-11-18T15:02:49;3.90;1.00
34135;DHT22;20410;55.578;12.968;2023-11-18T15:05:16;3.90;1.00
34135;DHT22;20410;55.578;12.968;2023-11-18T15:07:44;3.90;1.00
34135;DHT22;20410;55.578;12.968;2023-11-18T15:10:11;3.90;1.00
34135;DHT22;20410;55.578;12.968;2023-11-18T15:12:36;3.90;1.00
34135;DHT22;20410;55.578;12.968;2023-11-18T15:15:03;3.80;1.00
34135;DHT22;20410;55.578;12.968;2023-11-18T15:17:30;3.80;1.00
34135;DHT22;20410;55.578;12.968;2023-11-18T15:19:55;3.80;1.00
34135;DHT22;20410;55.578;12.968;2023-11-18T15:22:21;3.70;1.00
34135;DHT22;20410;55.578;12.968;2023-11-18T15:24:48;3.70;1.00
34135;DHT22;20410;55.578;12.968;2023-11-18T15:27:14;3.70;1.00
34135;DHT22;20410;55.578;12.968;2023-11-18T15:29:40;3.60;1.00
34135;DHT22;20410;55.578;12.968;2023-11-18T15:32:17;3.60;1.00
34135;DHT22;20410;55.578;12.968;2023-11-18T15:34:43;3.50;1.00
34135;DHT22;20410;55.578;12.968;2023-11-18T15:37:09;3.50;1.00
34135;DHT22;20410;55.578;12.968;2023-11-18T15:39:35;3.40;1.00
34135;DHT22;20410;55.578;12.968;2023-11-18T15:42:00;3.40;1.00
34135;DHT22;20410;55.578;12.968;2023-11-18T15:44:27;3.40;1.00
34135;DHT22;20410;55.578;12.968;2023-11-18T15:46:54;3.30;1.00
34135;DHT22;20410;55.578;12.968;2023-11-18T15:49:19;3.30;1.00
34135;DHT22;20410;55.578;12.968;2023-11-18T15:51:45;3.30;1.00
34135;DHT22;20410;55.578;12.968;2023-11-18T15:54:11;3.20;1.00
34135;DHT22;20410;55.578;12.968;2023-11-18T15:56:41;3.10;1.00
34135;DHT22;20410;55.578;12.968;2023-11-18T15:59:08;3.10;1.00
34135;DHT22;20410;55.578;12.968;2023-11-18T16:01:34;3.10;1.00
34135;DHT22;20410;55.578;12.968;2023-11-18T16:04:00;3.10;1.00
34135;DHT22;20410;55.578;12.968;2023-11-18T16:06:26;3.10;1.00
34135;DHT22;20410;55.578;12.968;2023-11-18T16:08:51;3.00;1.00
34135;DHT22;20410;55.578;12.968;2023-11-18T16:11:17;3.00;1.00
34135;DHT22;20410;55.578;12.968;2023-11-18T16:13:43;3.00;1.00
34135;DHT22;20410;55.578;12.968;2023-11-18T16:16:08;2.90;1.00
34135;DHT22;20410;55.578;12.968;2023-11-18T16:18:34;2.90;1.00